createdAt,value
2018-12-30T00:00:23.759Z,92.10
2018-12-30T00:06:27.278Z,92.10
2018-12-30T00:12:30.981Z,92.20
2018-12-30T00:18:35.122Z,92.10
2018-12-30T00:24:38.752Z,92.10
2018-12-30T00:30:42.167Z,92.50
2018-12-30T00:36:45.559Z,92.20
2018-12-30T00:42:49.369Z,92.20
2018-12-30T00:48:52.784Z,92.30
2018-12-30T00:54:56.191Z,92.30
2018-12-30T01:01:00.004Z,92.30
2018-12-30T01:07:03.816Z,92.30
2018-12-30T01:13:07.231Z,92.20
2018-12-30T01:19:11.681Z,92.10
2018-12-30T01:25:15.096Z,92.10
2018-12-30T01:31:18.520Z,92.00
2018-12-30T01:37:22.100Z,91.80
2018-12-30T01:43:25.511Z,91.90
2018-12-30T01:49:28.925Z,91.90
2018-12-30T01:55:32.736Z,91.90
2018-12-30T02:01:36.151Z,91.80
2018-12-30T02:07:39.828Z,91.50
2018-12-30T02:13:43.416Z,91.80
2018-12-30T02:19:47.712Z,91.70
2018-12-30T02:25:51.115Z,91.70
2018-12-30T02:31:54.525Z,91.60
2018-12-30T02:37:57.908Z,91.70
2018-12-30T02:44:01.323Z,91.70
2018-12-30T02:50:05.659Z,91.30
2018-12-30T02:56:09.078Z,91.30
2018-12-30T03:02:12.691Z,91.60
2018-12-30T03:08:16.692Z,91.60
2018-12-30T03:14:20.101Z,91.90
2018-12-30T03:20:24.447Z,91.80
2018-12-30T03:26:27.873Z,91.80
2018-12-30T03:32:31.184Z,91.70
2018-12-30T03:38:34.564Z,91.60
2018-12-30T03:44:37.965Z,91.60
2018-12-30T03:50:41.301Z,91.60
2018-12-30T03:56:44.705Z,91.40
2018-12-30T04:02:48.038Z,91.10
2018-12-30T04:08:51.470Z,91.10
2018-12-30T04:14:54.804Z,91.10
2018-12-30T04:20:59.046Z,91.40
2018-12-30T04:27:02.385Z,91.90
2018-12-30T04:33:05.799Z,92.00
2018-12-30T04:39:09.100Z,92.00
2018-12-30T04:45:12.502Z,92.00
2018-12-30T04:51:15.836Z,92.00
2018-12-30T04:57:19.179Z,91.80
2018-12-30T05:03:22.768Z,91.70
2018-12-30T05:09:26.217Z,91.30
2018-12-30T05:15:29.624Z,90.80
2018-12-30T05:21:33.776Z,90.40
2018-12-30T05:27:37.432Z,90.20
2018-12-30T05:33:40.768Z,89.90
2018-12-30T05:39:44.071Z,90.00
2018-12-30T05:45:47.407Z,89.40
2018-12-30T05:51:50.744Z,89.60
2018-12-30T05:57:54.073Z,89.90
2018-12-30T06:03:57.483Z,90.00
2018-12-30T06:10:00.920Z,89.40
2018-12-30T06:16:04.319Z,88.80
2018-12-30T06:22:08.408Z,88.90
2018-12-30T06:28:11.789Z,89.10
2018-12-30T06:34:15.338Z,89.60
2018-12-30T06:40:18.712Z,89.10
2018-12-30T06:46:22.044Z,88.70
2018-12-30T06:52:25.371Z,88.30
2018-12-30T06:58:28.903Z,87.40
2018-12-30T07:04:32.232Z,87.20
2018-12-30T07:10:35.727Z,87.00
2018-12-30T07:16:39.104Z,85.70
2018-12-30T07:22:43.264Z,85.40
2018-12-30T07:28:46.660Z,85.30
2018-12-30T07:34:49.988Z,85.20
2018-12-30T07:40:53.301Z,82.10
2018-12-30T07:46:56.685Z,74.70
2018-12-30T07:53:00.291Z,72.60
2018-12-30T07:59:03.627Z,75.20
2018-12-30T08:05:06.963Z,78.40
2018-12-30T08:11:10.329Z,81.30
2018-12-30T08:17:13.716Z,82.30
2018-12-30T08:23:21.383Z,82.30
2018-12-30T08:29:22.857Z,83.40
2018-12-30T08:35:26.188Z,83.20
2018-12-30T08:41:29.492Z,82.50
2018-12-30T08:47:32.825Z,84.20
2018-12-30T08:53:36.148Z,84.70
2018-12-30T08:59:39.724Z,85.30
2018-12-30T09:05:43.048Z,86.10
2018-12-30T09:11:46.480Z,85.90
2018-12-30T09:17:49.860Z,86.10
2018-12-30T09:23:53.949Z,85.50
2018-12-30T09:29:57.280Z,85.50
2018-12-30T09:36:00.614Z,85.50
2018-12-30T09:42:03.992Z,85.90
2018-12-30T09:48:07.333Z,86.30
2018-12-30T09:54:10.731Z,87.00
2018-12-30T10:00:14.069Z,87.40
2018-12-30T10:06:17.409Z,88.50
2018-12-30T10:12:20.776Z,88.60
2018-12-30T10:18:24.160Z,87.70
2018-12-30T10:24:28.503Z,87.40
2018-12-30T10:30:31.876Z,87.70
2018-12-30T10:36:35.216Z,86.40
2018-12-30T10:42:38.536Z,86.50
2018-12-30T10:48:42.001Z,87.20
2018-12-30T10:54:45.336Z,86.10
2018-12-30T11:00:48.677Z,85.90
2018-12-30T11:06:52.077Z,86.30
2018-12-30T11:12:55.459Z,86.00
2018-12-30T11:18:58.857Z,85.70
2018-12-30T11:25:03.066Z,85.80
2018-12-30T11:31:06.468Z,85.10
2018-12-30T11:37:10.038Z,85.30
2018-12-30T11:43:13.657Z,85.00
2018-12-30T11:49:17.039Z,84.60
2018-12-30T11:55:20.376Z,85.40
2018-12-30T12:01:23.709Z,85.20
2018-12-30T12:07:27.132Z,85.80
2018-12-30T12:13:30.585Z,85.60
2018-12-30T12:19:33.925Z,86.00
2018-12-30T12:25:38.402Z,84.90
2018-12-30T12:31:41.804Z,85.60
2018-12-30T12:37:45.144Z,85.40
2018-12-30T12:43:48.472Z,86.50
2018-12-30T12:49:51.808Z,87.70
2018-12-30T12:55:55.340Z,89.10
2018-12-30T13:01:58.682Z,88.90
2018-12-30T13:08:02.017Z,90.00
2018-12-30T13:14:05.747Z,90.10
2018-12-30T13:20:09.198Z,90.50
2018-12-30T13:26:13.473Z,90.90
2018-12-30T13:32:16.810Z,91.40
2018-12-30T13:38:27.978Z,91.40
2018-12-30T13:44:25.336Z,91.90
2018-12-30T13:50:28.668Z,92.10
2018-12-30T13:56:31.993Z,92.40
2018-12-30T14:02:35.405Z,92.70
2018-12-30T14:08:38.736Z,92.90
2018-12-30T14:14:42.120Z,93.20
2018-12-30T14:20:47.184Z,93.30
2018-12-30T14:26:50.604Z,93.10
2018-12-30T14:32:54.008Z,93.20
2018-12-30T14:38:57.533Z,93.50
2018-12-30T14:45:00.845Z,93.40
2018-12-30T14:51:04.188Z,93.60
2018-12-30T14:57:07.580Z,93.70
2018-12-30T15:03:10.912Z,93.80
2018-12-30T15:09:14.244Z,93.50
2018-12-30T15:15:17.872Z,93.30
2018-12-30T15:21:21.180Z,93.80
2018-12-30T15:27:25.303Z,93.40
2018-12-30T15:33:28.637Z,93.70
2018-12-30T15:39:32.056Z,94.20
2018-12-30T15:45:35.360Z,94.30
2018-12-30T15:51:38.692Z,94.30
2018-12-30T15:57:42.104Z,94.20
2018-12-30T16:03:45.647Z,94.00
2018-12-30T16:09:49.061Z,94.10
2018-12-30T16:15:52.433Z,94.10
2018-12-30T16:21:56.535Z,93.90
2018-12-30T16:28:00.703Z,93.70
2018-12-30T16:34:04.384Z,93.80
2018-12-30T16:40:07.717Z,94.10
2018-12-30T16:46:11.115Z,94.10
2018-12-30T16:52:14.513Z,94.60
2018-12-30T16:58:17.924Z,95.00
2018-12-30T17:04:21.259Z,95.10
2018-12-30T17:10:24.587Z,95.00
2018-12-30T17:16:28.028Z,94.60
2018-12-30T17:22:31.320Z,94.40
2018-12-30T17:28:35.485Z,94.50
2018-12-30T17:34:38.821Z,94.30
2018-12-30T17:40:42.232Z,94.50
2018-12-30T17:46:45.536Z,94.50
2018-12-30T17:52:48.925Z,94.50
2018-12-30T17:58:52.269Z,94.40
2018-12-30T18:04:55.655Z,94.50
2018-12-30T18:10:58.990Z,94.50
2018-12-30T18:17:02.432Z,94.30
2018-12-30T18:23:05.740Z,94.30
2018-12-30T18:29:09.904Z,94.50
2018-12-30T18:35:13.316Z,94.40
2018-12-30T18:41:16.648Z,94.60
2018-12-30T18:47:20.045Z,94.60
2018-12-30T18:53:23.421Z,94.60
2018-12-30T18:59:26.786Z,94.70
2018-12-30T19:05:30.456Z,94.60
2018-12-30T19:11:33.876Z,94.80
2018-12-30T19:17:37.279Z,94.90
2018-12-30T19:23:40.724Z,94.90
2018-12-30T19:29:44.871Z,95.00
2018-12-30T19:35:48.286Z,95.10
2018-12-30T19:41:51.617Z,95.20
2018-12-30T19:47:55.008Z,95.10
2018-12-30T19:53:58.340Z,94.90
2018-12-30T20:00:01.668Z,94.80
2018-12-30T20:06:05.077Z,94.50
2018-12-30T20:12:08.403Z,94.30
2018-12-30T20:18:11.852Z,94.50
2018-12-30T20:24:15.244Z,94.10
2018-12-30T20:30:19.489Z,94.10
2018-12-30T20:36:23.064Z,94.20
2018-12-30T20:42:26.464Z,94.10
2018-12-30T20:48:29.824Z,94.10
2018-12-30T20:54:33.156Z,94.10
2018-12-30T21:00:36.753Z,94.20
2018-12-30T21:06:40.209Z,94.20
2018-12-30T21:12:43.620Z,94.20
2018-12-30T21:18:47.057Z,94.20
2018-12-30T21:24:50.387Z,94.50
2018-12-30T21:30:54.696Z,94.40
2018-12-30T21:36:58.036Z,94.40
2018-12-30T21:43:01.376Z,94.30
2018-12-30T21:49:04.712Z,94.30
2018-12-30T21:55:08.048Z,94.60
2018-12-30T22:01:11.383Z,94.40
2018-12-30T22:07:14.712Z,94.20
2018-12-30T22:13:18.050Z,94.20
2018-12-30T22:19:21.500Z,94.30
2018-12-30T22:25:24.881Z,94.20
2018-12-30T22:31:28.976Z,93.80
2018-12-30T22:37:32.313Z,93.90
2018-12-30T22:43:35.724Z,93.80
2018-12-30T22:49:39.028Z,93.70
2018-12-30T22:55:42.368Z,93.70
2018-12-30T23:01:46.008Z,93.40
2018-12-30T23:07:49.427Z,93.50
2018-12-30T23:13:52.769Z,93.20
2018-12-30T23:19:56.207Z,93.20
2018-12-30T23:25:59.612Z,92.90
2018-12-30T23:32:03.768Z,92.70
2018-12-30T23:38:07.101Z,92.10
2018-12-30T23:44:10.432Z,91.60
2018-12-30T23:50:13.736Z,92.40
2018-12-30T23:56:17.073Z,92.60
